Terminal Aerodrome Forecast
Issued by NWS Grand Forks, ND

Home | Current Version | Previous Version | Graphics & Text | Print | Product List | Glossary On
Versions: 1 2 3 4 5 6 7 8 9 10 11 12 13 14 15 16 17 18 19 20 21
000
FTUS43 KFGF 212300
TAFGFK
TAF
KGFK 212322Z 2200/2224 VRB04KT P6SM VCTS BKN025CB
     FM220200 35005KT P6SM BKN030
     FM220900 34006KT P6SM SCT025
     FM221600 36007KT P6SM SCT030=

USA.gov is the U.S. government's official web portal to all federal, state and local government web resources and services.